PWSweather.com
Personal Weather Stations
Station Observations
AF1HS
North Haven, CT 06473

North Haven, CT 06473

Lat: 41.3733, Lon: -72.8413

Elevation: 85.3

Station Type: Oregon Scientific WMR968

http://www.af1hs.com/wx/index.php

Latest ConditionsUpdated 2:10:03 PM EDT Tuesday, Sep 18, 2018
Currently Today's Max Today's Min Today's Average
Temperature 70.4°F21.3°C 77.9°F25.5°C 69.8°F21.0°C 72.3°F22.4°C
Dew Point 63.2°F17.3°C 70.1°F21.2°C 61.7°F16.5°C 66.2°F19.0°C
Winds 1.2 mph NNE1.9 kmh NNE 9.2 mph -14.8 kmh - - 4.1 mph 6.6 kmh
Wind Gusts 4.6 mph7.4 kmh 17.3 mph27.8 kmh - -
Humidity 78% 94% 67% 81%
Pressure 29.59 in1002.0 mb 29.80 in1009.1 mb 29.56 in1001.0 mb -
Hour Temp Dew Point Humidity Winds Wind Gusts Pressure Precip Precip Rate Daily Precip Total
02:10 PM 70.4°F21.3°C 63.2°F17.3°C 78% 1.2 mph NNE1.9 kmh NNE 4.6 mph7.4 kmh 29.59 in1002.0 mb - 0.00 in0.0 mm 0.00 in0.0 mm
02:00 PM 70.5°F21.4°C 63.3°F17.4°C 78% 1.2 mph N1.9 kmh N 3.5 mph5.6 kmh 29.59 in1002.0 mb - 0.00 in0.0 mm 0.00 in0.0 mm
01:50 PM 70.8°F21.6°C 64.0°F17.8°C 79% 2.3 mph N3.7 kmh N 5.8 mph9.3 kmh 29.59 in1002.0 mb - 0.00 in0.0 mm 0.00 in0.0 mm
01:40 PM 70.8°F21.6°C 63.6°F17.6°C 78% 3.5 mph N5.6 kmh N 8.1 mph13.0 kmh 29.59 in1002.0 mb - 0.00 in0.0 mm 0.00 in0.0 mm
01:30 PM 71.1°F21.7°C 63.6°F17.6°C 77% 3.5 mph N5.6 kmh N 5.8 mph9.3 kmh 29.59 in1002.0 mb - 0.00 in0.0 mm 0.00 in0.0 mm
01:20 PM 71.4°F21.9°C 63.8°F17.7°C 77% 3.5 mph N5.6 kmh N 3.5 mph5.6 kmh 29.59 in1002.0 mb - 0.00 in0.0 mm 0.00 in0.0 mm
01:10 PM 72.1°F22.3°C 63.8°F17.7°C 75% 4.6 mph N7.4 kmh N 5.8 mph9.3 kmh 29.59 in1002.0 mb - 0.00 in0.0 mm 0.00 in0.0 mm
12:50 PM 73.6°F23.1°C 63.6°F17.6°C 71% 3.5 mph NNE5.6 kmh NNE 6.9 mph11.1 kmh 29.56 in1001.0 mb - 0.00 in0.0 mm 0.00 in0.0 mm
12:40 PM 75.3°F24.1°C 64.0°F17.8°C 68% 4.6 mph WNW7.4 kmh WNW 5.8 mph9.3 kmh 29.56 in1001.0 mb - 0.00 in0.0 mm 0.00 in0.0 mm
12:30 PM 76.8°F24.9°C 65.9°F18.8°C 69% 3.5 mph SSE5.6 kmh SSE 10.4 mph16.7 kmh 29.56 in1001.0 mb - 0.00 in0.0 mm 0.00 in0.0 mm
12:20 PM 77.9°F25.5°C 66.1°F18.9°C 67% 2.3 mph S3.7 kmh S 5.8 mph9.3 kmh 29.56 in1001.0 mb - 0.00 in0.0 mm 0.00 in0.0 mm
12:10 PM 77.1°F25.1°C 65.7°F18.7°C 68% 4.6 mph SSW7.4 kmh SSW 9.2 mph14.8 kmh 29.56 in1001.0 mb - 0.00 in0.0 mm 0.00 in0.0 mm
11:50 AM 76.0°F24.4°C 65.9°F18.8°C 71% 4.6 mph S7.4 kmh S 10.4 mph16.7 kmh 29.56 in1001.0 mb - 0.00 in0.0 mm 0.00 in0.0 mm
11:40 AM 75.4°F24.1°C 64.9°F18.3°C 70% 4.6 mph S7.4 kmh S 8.1 mph13.0 kmh 29.56 in1001.0 mb - 0.00 in0.0 mm 0.00 in0.0 mm
11:30 AM 75.8°F24.3°C 64.9°F18.3°C 69% 4.6 mph SSE7.4 kmh SSE 8.1 mph13.0 kmh 29.56 in1001.0 mb - 0.00 in0.0 mm 0.00 in0.0 mm
11:20 AM 75.7°F24.3°C 64.8°F18.2°C 69% 4.6 mph E7.4 kmh E 9.2 mph14.8 kmh 29.56 in1001.0 mb - 0.00 in0.0 mm 0.00 in0.0 mm
11:10 AM 75.6°F24.2°C 65.1°F18.4°C 70% 3.5 mph S5.6 kmh S 12.7 mph20.4 kmh 29.59 in1002.0 mb - 0.00 in0.0 mm 0.00 in0.0 mm
11:00 AM 75.4°F24.1°C 65.3°F18.5°C 71% 5.8 mph S9.3 kmh S 9.2 mph14.8 kmh 29.59 in1002.0 mb - 0.00 in0.0 mm 0.00 in0.0 mm
10:50 AM 75.2°F24.0°C 64.7°F18.2°C 70% 6.9 mph SSW11.1 kmh SSW 10.4 mph16.7 kmh 29.59 in1002.0 mb - 0.00 in0.0 mm 0.00 in0.0 mm
10:40 AM 75.0°F23.9°C 65.0°F18.3°C 71% 6.9 mph S11.1 kmh S 10.4 mph16.7 kmh 29.59 in1002.0 mb - 0.00 in0.0 mm 0.00 in0.0 mm
10:30 AM 75.0°F23.9°C 65.4°F18.6°C 72% 3.5 mph SSW5.6 kmh SSW 8.1 mph13.0 kmh 29.59 in1002.0 mb - 0.00 in0.0 mm 0.00 in0.0 mm
10:20 AM 75.0°F23.9°C 65.0°F18.3°C 71% 5.8 mph S9.3 kmh S 8.1 mph13.0 kmh 29.59 in1002.0 mb - 0.00 in0.0 mm 0.00 in0.0 mm
10:10 AM 74.8°F23.8°C 65.6°F18.7°C 73% 4.6 mph S7.4 kmh S 12.7 mph20.4 kmh 29.59 in1002.0 mb - 0.00 in0.0 mm 0.00 in0.0 mm
10:00 AM 74.7°F23.7°C 65.0°F18.3°C 72% 8.1 mph S13.0 kmh S 11.5 mph18.5 kmh 29.59 in1002.0 mb - 0.00 in0.0 mm 0.00 in0.0 mm
09:50 AM 74.7°F23.7°C 65.0°F18.3°C 72% 8.1 mph S13.0 kmh S 10.4 mph16.7 kmh 29.59 in1002.0 mb - 0.00 in0.0 mm 0.00 in0.0 mm
09:40 AM 74.5°F23.6°C 65.3°F18.5°C 73% 5.8 mph S9.3 kmh S 15.0 mph24.1 kmh 29.59 in1002.0 mb - 0.00 in0.0 mm 0.00 in0.0 mm
09:30 AM 73.9°F23.3°C 67.7°F19.8°C 81% 6.9 mph S11.1 kmh S 12.7 mph20.4 kmh 29.59 in1002.0 mb - 0.00 in0.0 mm 0.00 in0.0 mm
09:20 AM 73.4°F23.0°C 68.3°F20.2°C 84% 5.8 mph SSW9.3 kmh SSW 12.7 mph20.4 kmh 29.59 in1002.0 mb - 0.00 in0.0 mm 0.00 in0.0 mm
09:10 AM 73.1°F22.8°C 69.0°F20.6°C 87% 5.8 mph SW9.3 kmh SW 9.2 mph14.8 kmh 29.59 in1002.0 mb - 0.00 in0.0 mm 0.00 in0.0 mm
09:00 AM 72.9°F22.7°C 69.1°F20.6°C 88% 5.8 mph SSW9.3 kmh SSW 15.0 mph24.1 kmh 29.59 in1002.0 mb - 0.00 in0.0 mm 0.00 in0.0 mm
08:50 AM 72.9°F22.7°C 69.4°F20.8°C 89% 6.9 mph S11.1 kmh S 8.1 mph13.0 kmh 29.59 in1002.0 mb - 0.00 in0.0 mm 0.00 in0.0 mm
08:40 AM 72.7°F22.6°C 69.6°F20.9°C 90% 6.9 mph S11.1 kmh S 12.7 mph20.4 kmh 29.62 in1003.0 mb - 0.00 in0.0 mm 0.00 in0.0 mm
08:30 AM 72.7°F22.6°C 69.6°F20.9°C 90% 8.1 mph SSW13.0 kmh SSW 12.7 mph20.4 kmh 29.62 in1003.0 mb - 0.00 in0.0 mm 0.00 in0.0 mm
08:20 AM 72.7°F22.6°C 69.2°F20.7°C 89% 6.9 mph S11.1 kmh S 9.2 mph14.8 kmh 29.62 in1003.0 mb - 0.00 in0.0 mm 0.00 in0.0 mm
08:10 AM 72.7°F22.6°C 68.6°F20.3°C 87% 8.1 mph S13.0 kmh S 10.4 mph16.7 kmh 29.62 in1003.0 mb - 0.00 in0.0 mm 0.00 in0.0 mm
08:00 AM 72.7°F22.6°C 68.6°F20.3°C 87% 5.8 mph SSW9.3 kmh SSW 10.4 mph16.7 kmh 29.62 in1003.0 mb - 0.00 in0.0 mm 0.00 in0.0 mm
07:50 AM 72.7°F22.6°C 67.9°F19.9°C 85% 4.6 mph SSW7.4 kmh SSW 12.7 mph20.4 kmh 29.62 in1003.0 mb - 0.00 in0.0 mm 0.00 in0.0 mm
07:40 AM 72.7°F22.6°C 67.9°F19.9°C 85% 9.2 mph S14.8 kmh S 10.4 mph16.7 kmh 29.62 in1003.0 mb - 0.00 in0.0 mm 0.00 in0.0 mm
07:30 AM 72.7°F22.6°C 67.9°F19.9°C 85% 9.2 mph SSW14.8 kmh SSW 8.1 mph13.0 kmh 29.62 in1003.0 mb - 0.00 in0.0 mm 0.00 in0.0 mm
07:20 AM 72.7°F22.6°C 67.6°F19.8°C 84% 4.6 mph S7.4 kmh S 11.5 mph18.5 kmh 29.62 in1003.0 mb - 0.00 in0.0 mm 0.00 in0.0 mm
07:10 AM 72.7°F22.6°C 67.6°F19.8°C 84% 9.2 mph S14.8 kmh S 17.3 mph27.8 kmh 29.62 in1003.0 mb - 0.00 in0.0 mm 0.00 in0.0 mm
07:00 AM 72.7°F22.6°C 67.9°F19.9°C 85% 5.8 mph SSW9.3 kmh SSW 12.7 mph20.4 kmh 29.62 in1003.0 mb - 0.00 in0.0 mm 0.00 in0.0 mm
06:50 AM 72.5°F22.5°C 67.4°F19.7°C 84% 8.1 mph SE13.0 kmh SE 11.5 mph18.5 kmh 29.62 in1003.0 mb - 0.00 in0.0 mm 0.00 in0.0 mm
06:40 AM 72.5°F22.5°C 67.7°F19.8°C 85% 6.9 mph SE11.1 kmh SE 8.1 mph13.0 kmh 29.65 in1004.1 mb - 0.00 in0.0 mm 0.00 in0.0 mm
06:30 AM 72.5°F22.5°C 68.4°F20.2°C 87% 5.8 mph SE9.3 kmh SE 11.5 mph18.5 kmh 29.65 in1004.1 mb - 0.00 in0.0 mm 0.00 in0.0 mm
06:20 AM 72.3°F22.4°C 68.9°F20.5°C 89% 5.8 mph SSW9.3 kmh SSW 8.1 mph13.0 kmh 29.65 in1004.1 mb - 0.00 in0.0 mm 0.00 in0.0 mm
06:10 AM 72.3°F22.4°C 69.2°F20.7°C 90% 5.8 mph SW9.3 kmh SW 8.1 mph13.0 kmh 29.65 in1004.1 mb - 0.00 in0.0 mm 0.00 in0.0 mm
06:00 AM 72.3°F22.4°C 69.2°F20.7°C 90% 4.6 mph SSW7.4 kmh SSW 5.8 mph9.3 kmh 29.65 in1004.1 mb - 0.00 in0.0 mm 0.00 in0.0 mm
05:50 AM 72.3°F22.4°C 69.5°F20.8°C 91% 5.8 mph SSW9.3 kmh SSW 15.0 mph24.1 kmh 29.65 in1004.1 mb - 0.00 in0.0 mm 0.00 in0.0 mm
05:40 AM 72.3°F22.4°C 69.9°F21.1°C 92% 3.5 mph S5.6 kmh S 5.8 mph9.3 kmh 29.65 in1004.1 mb - 0.00 in0.0 mm 0.00 in0.0 mm
05:30 AM 72.3°F22.4°C 69.9°F21.1°C 92% 4.6 mph SSW7.4 kmh SSW 8.1 mph13.0 kmh 29.65 in1004.1 mb - 0.00 in0.0 mm 0.00 in0.0 mm
05:20 AM 72.3°F22.4°C 69.9°F21.1°C 92% 5.8 mph S9.3 kmh S 6.9 mph11.1 kmh 29.65 in1004.1 mb - 0.00 in0.0 mm 0.00 in0.0 mm
05:10 AM 72.1°F22.3°C 69.7°F20.9°C 92% 4.6 mph S7.4 kmh S 8.1 mph13.0 kmh 29.65 in1004.1 mb - 0.00 in0.0 mm 0.00 in0.0 mm
05:00 AM 72.1°F22.3°C 70.0°F21.1°C 93% 5.8 mph S9.3 kmh S 10.4 mph16.7 kmh 29.65 in1004.1 mb - 0.00 in0.0 mm 0.00 in0.0 mm
04:50 AM 72.0°F22.2°C 70.1°F21.2°C 94% 6.9 mph SW11.1 kmh SW 11.5 mph18.5 kmh 29.65 in1004.1 mb - 0.00 in0.0 mm 0.00 in0.0 mm
04:40 AM 71.8°F22.1°C 70.0°F21.1°C 94% 5.8 mph S9.3 kmh S 10.4 mph16.7 kmh 29.65 in1004.1 mb - 0.00 in0.0 mm 0.00 in0.0 mm
04:30 AM 71.4°F21.9°C 69.6°F20.9°C 94% 4.6 mph SE7.4 kmh SE 5.8 mph9.3 kmh 29.68 in1005.1 mb - 0.00 in0.0 mm 0.00 in0.0 mm
04:20 AM 71.2°F21.8°C 69.0°F20.6°C 93% 4.6 mph SE7.4 kmh SE 5.8 mph9.3 kmh 29.68 in1005.1 mb - 0.00 in0.0 mm 0.00 in0.0 mm
04:10 AM 70.7°F21.5°C 67.6°F19.8°C 90% 2.3 mph SE3.7 kmh SE 5.8 mph9.3 kmh 29.68 in1005.1 mb - 0.00 in0.0 mm 0.00 in0.0 mm
04:00 AM 70.3°F21.3°C 66.6°F19.2°C 88% 3.5 mph SE5.6 kmh SE 8.1 mph13.0 kmh 29.68 in1005.1 mb - 0.00 in0.0 mm 0.00 in0.0 mm
03:50 AM 70.2°F21.2°C 65.8°F18.8°C 86% 1.2 mph E1.9 kmh E 3.5 mph5.6 kmh 29.68 in1005.1 mb - 0.00 in0.0 mm 0.00 in0.0 mm
03:40 AM 70.2°F21.2°C 65.8°F18.8°C 86% 3.5 mph SE5.6 kmh SE 9.2 mph14.8 kmh 29.71 in1006.1 mb - 0.00 in0.0 mm 0.00 in0.0 mm
03:30 AM 70.0°F21.1°C 64.9°F18.3°C 84% 3.5 mph E5.6 kmh E 5.8 mph9.3 kmh 29.71 in1006.1 mb - 0.00 in0.0 mm 0.00 in0.0 mm
03:20 AM 69.8°F21.0°C 63.7°F17.6°C 81% 2.3 mph ESE3.7 kmh ESE 3.5 mph5.6 kmh 29.71 in1006.1 mb - 0.00 in0.0 mm 0.00 in0.0 mm
03:10 AM 69.8°F21.0°C 63.0°F17.2°C 79% 2.3 mph SE3.7 kmh SE 5.8 mph9.3 kmh 29.71 in1006.1 mb - 0.00 in0.0 mm 0.00 in0.0 mm
03:00 AM 70.0°F21.1°C 62.4°F16.9°C 77% 1.2 mph E1.9 kmh E 3.5 mph5.6 kmh 29.74 in1007.1 mb - 0.00 in0.0 mm 0.00 in0.0 mm
02:50 AM 70.0°F21.1°C 61.7°F16.5°C 75% 1.2 mph SSE1.9 kmh SSE 3.5 mph5.6 kmh 29.74 in1007.1 mb - 0.00 in0.0 mm 0.00 in0.0 mm
02:40 AM 70.0°F21.1°C 62.1°F16.7°C 76% Calm Calm 2.3 mph3.7 kmh 29.74 in1007.1 mb - 0.00 in0.0 mm 0.00 in0.0 mm
02:30 AM 70.0°F21.1°C 62.1°F16.7°C 76% 1.2 mph SSE1.9 kmh SSE 2.3 mph3.7 kmh 29.74 in1007.1 mb - 0.00 in0.0 mm 0.00 in0.0 mm
02:20 AM 70.0°F21.1°C 62.4°F16.9°C 77% 1.2 mph SSE1.9 kmh SSE 4.6 mph7.4 kmh 29.74 in1007.1 mb - 0.00 in0.0 mm 0.00 in0.0 mm
02:10 AM 70.0°F21.1°C 63.2°F17.3°C 79% 1.2 mph SSE1.9 kmh SSE 3.5 mph5.6 kmh 29.74 in1007.1 mb - 0.00 in0.0 mm 0.00 in0.0 mm
02:00 AM 70.0°F21.1°C 63.5°F17.5°C 80% Calm Calm 3.5 mph5.6 kmh 29.74 in1007.1 mb - 0.00 in0.0 mm 0.00 in0.0 mm
01:50 AM 70.2°F21.2°C 64.1°F17.8°C 81% 1.2 mph SE1.9 kmh SE 2.3 mph3.7 kmh 29.74 in1007.1 mb - 0.00 in0.0 mm 0.00 in0.0 mm
01:40 AM 70.3°F21.3°C 64.6°F18.1°C 82% Calm Calm 5.8 mph9.3 kmh 29.74 in1007.1 mb - 0.00 in0.0 mm 0.00 in0.0 mm
01:30 AM 70.3°F21.3°C 64.9°F18.3°C 83% 1.2 mph S1.9 kmh S 3.5 mph5.6 kmh 29.77 in1008.1 mb - 0.00 in0.0 mm 0.00 in0.0 mm
01:20 AM 70.3°F21.3°C 65.3°F18.5°C 84% Calm Calm -- 29.77 in1008.1 mb - 0.00 in0.0 mm 0.00 in0.0 mm
01:10 AM 70.3°F21.3°C 65.3°F18.5°C 84% Calm Calm 2.3 mph3.7 kmh 29.77 in1008.1 mb - 0.00 in0.0 mm 0.00 in0.0 mm
01:00 AM 70.3°F21.3°C 65.3°F18.5°C 84% Calm Calm 2.3 mph3.7 kmh 29.77 in1008.1 mb - 0.00 in0.0 mm 0.00 in0.0 mm
12:50 AM 70.3°F21.3°C 65.3°F18.5°C 84% Calm Calm -- 29.77 in1008.1 mb - 0.00 in0.0 mm 0.00 in0.0 mm
12:40 AM 70.3°F21.3°C 64.9°F18.3°C 83% Calm Calm 2.3 mph3.7 kmh 29.77 in1008.1 mb - 0.00 in0.0 mm 0.00 in0.0 mm
12:30 AM 70.3°F21.3°C 64.9°F18.3°C 83% Calm Calm -- 29.77 in1008.1 mb - 0.00 in0.0 mm 0.00 in0.0 mm
12:20 AM 70.3°F21.3°C 65.3°F18.5°C 84% 1.2 mph S1.9 kmh S -- 29.77 in1008.1 mb - 0.00 in0.0 mm 0.00 in0.0 mm
12:10 AM 70.2°F21.2°C 64.8°F18.2°C 83% Calm Calm -- 29.80 in1009.1 mb - 0.00 in0.0 mm 0.00 in0.0 mm
12:00 AM 70.2°F21.2°C 64.4°F18.0°C 82% Calm Calm 3.5 mph5.6 kmh 29.80 in1009.1 mb - 0.00 in0.0 mm 0.00 in0.0 mm